Time;durP1;ratioP1;P1;durP2;ratioP2;P2;SDS_P1;SDS_P2;PMS_P1;PMS_P2;Temp;Humidity;BMP_temperature;BMP_pressure;BME280_temperature;BME280_humidity;BME280_pressure;Samples;Min_cycle;Max_cycle;Signal;HPM_P1;HPM_P2
2024/02/23 00:00:06;;;;;;;0.38;0.20;;;11.50;99.90;;;;;;5016892;28;20084;-71
2024/02/23 00:02:32;;;;;;;0.30;0.30;;;11.50;99.90;;;;;;5016870;28;20420;-71
2024/02/23 00:04:58;;;;;;;2.83;0.40;;;11.50;99.90;;;;;;5014738;28;20022;-71
2024/02/23 00:07:23;;;;;;;0.70;0.43;;;11.50;99.90;;;;;;5016082;28;20029;-72
2024/02/23 00:09:50;;;;;;;0.28;0.28;;;11.50;99.90;;;;;;5015834;28;20159;-71
2024/02/23 00:12:15;;;;;;;0.73;0.50;;;11.50;99.90;;;;;;5016955;28;20144;-72
2024/02/23 00:14:41;;;;;;;0.47;0.40;;;11.60;99.90;;;;;;5014270;28;20124;-71
2024/02/23 00:17:08;;;;;;;0.52;0.40;;;11.60;99.90;;;;;;5015362;28;20033;-71
2024/02/23 00:19:34;;;;;;;1.48;0.20;;;11.60;99.90;;;;;;5014671;28;20475;-71
2024/02/23 00:22:00;;;;;;;0.65;0.60;;;11.50;99.90;;;;;;5016984;28;20037;-71
2024/02/23 00:24:26;;;;;;;0.68;0.68;;;11.50;99.90;;;;;;5017817;28;20860;-71
2024/02/23 00:26:52;;;;;;;0.82;0.60;;;11.40;99.90;;;;;;5019855;28;20684;-71
2024/02/23 00:29:18;;;;;;;0.80;0.60;;;11.40;99.90;;;;;;5018043;28;20027;-71
2024/02/23 00:31:45;;;;;;;0.40;0.40;;;11.40;99.90;;;;;;5017963;28;20048;-71
2024/02/23 00:34:13;;;;;;;0.80;0.57;;;11.30;99.90;;;;;;5020438;28;20128;-71
2024/02/23 00:36:42;;;;;;;0.60;0.60;;;11.30;99.90;;;;;;5016638;28;20033;-71
2024/02/23 00:39:08;;;;;;;1.05;0.40;;;11.30;99.90;;;;;;5016345;28;20108;-71
2024/02/23 00:41:35;;;;;;;0.45;0.45;;;11.30;99.90;;;;;;5017454;28;20035;-71
2024/02/23 00:44:02;;;;;;;1.63;0.57;;;11.40;99.90;;;;;;5019218;28;20758;-72
2024/02/23 00:46:28;;;;;;;0.63;0.60;;;11.20;99.90;;;;;;5020428;28;20053;-71
2024/02/23 00:48:54;;;;;;;1.42;0.40;;;11.20;99.90;;;;;;5019668;28;20104;-71
2024/02/23 00:51:20;;;;;;;1.60;0.65;;;11.20;99.90;;;;;;5018215;28;20046;-72
2024/02/23 00:53:46;;;;;;;0.85;0.68;;;11.20;99.90;;;;;;5017782;28;20041;-72
2024/02/23 00:56:12;;;;;;;2.40;0.75;;;11.10;99.90;;;;;;5018822;28;20515;-71
2024/02/23 00:58:39;;;;;;;2.58;0.65;;;11.20;99.90;;;;;;5018626;28;20167;-72
2024/02/23 01:01:05;;;;;;;2.05;0.60;;;11.20;99.90;;;;;;5018246;28;20033;-72
2024/02/23 01:03:31;;;;;;;1.10;0.68;;;11.30;99.90;;;;;;5016418;28;20034;-72
2024/02/23 01:05:56;;;;;;;0.90;0.65;;;11.40;99.90;;;;;;5017974;28;20029;-71
2024/02/23 01:08:22;;;;;;;1.08;0.52;;;11.40;99.90;;;;;;5019860;28;20155;-72
2024/02/23 01:10:48;;;;;;;0.60;0.60;;;11.50;99.90;;;;;;5019533;28;20026;-71
2024/02/23 01:13:14;;;;;;;1.25;0.60;;;11.50;99.90;;;;;;5018423;28;20508;-71
2024/02/23 01:15:40;;;;;;;2.15;0.50;;;11.50;99.90;;;;;;5016509;28;20037;-71
2024/02/23 01:18:07;;;;;;;1.75;0.63;;;11.50;99.90;;;;;;5018830;28;20029;-71
2024/02/23 01:20:34;;;;;;;0.65;0.60;;;11.40;99.90;;;;;;5019050;28;20033;-71
2024/02/23 01:23:00;;;;;;;1.13;0.47;;;11.40;99.90;;;;;;5018054;28;20630;-71
2024/02/23 01:25:26;;;;;;;0.90;0.52;;;11.50;99.90;;;;;;5017737;28;20700;-71
2024/02/23 01:27:52;;;;;;;0.68;0.60;;;11.50;99.90;;;;;;5018831;28;20030;-71
2024/02/23 01:30:18;;;;;;;0.40;0.40;;;11.40;99.90;;;;;;5018215;28;20752;-71
2024/02/23 01:32:49;;;;;;;1.10;0.68;;;11.50;99.90;;;;;;5019215;28;20109;-71
2024/02/23 01:35:15;;;;;;;0.40;0.28;;;11.60;99.90;;;;;;5019641;28;20477;-71
2024/02/23 01:37:41;;;;;;;0.60;0.40;;;11.50;99.90;;;;;;5016441;28;20120;-72
2024/02/23 01:40:07;;;;;;;0.40;0.13;;;11.50;99.90;;;;;;5019051;28;20404;-74
2024/02/23 01:42:33;;;;;;;0.40;0.40;;;11.40;99.90;;;;;;5017861;28;20160;-73
2024/02/23 01:45:00;;;;;;;0.45;0.45;;;11.40;99.90;;;;;;5018644;28;20064;-73
2024/02/23 01:47:27;;;;;;;1.08;0.30;;;11.40;99.90;;;;;;5017875;28;20037;-71
2024/02/23 01:49:54;;;;;;;0.25;0.25;;;11.30;99.90;;;;;;5015164;28;20056;-71
2024/02/23 01:52:21;;;;;;;1.25;0.20;;;11.20;99.90;;;;;;5017813;28;20045;-71
2024/02/23 01:54:47;;;;;;;0.20;0.20;;;11.20;99.90;;;;;;5018632;28;20516;-71
2024/02/23 01:57:13;;;;;;;0.65;0.47;;;11.10;99.90;;;;;;5020095;28;20034;-71
2024/02/23 01:59:40;;;;;;;0.90;0.52;;;11.10;99.90;;;;;;5017048;28;20386;-71
2024/02/23 02:02:06;;;;;;;0.40;0.25;;;11.10;99.90;;;;;;5017923;28;20053;-73
2024/02/23 02:04:32;;;;;;;0.30;0.30;;;11.00;99.90;;;;;;5015105;28;20038;-73
2024/02/23 02:06:59;;;;;;;0.20;0.20;;;11.00;99.90;;;;;;5020134;28;20707;-74
2024/02/23 02:09:26;;;;;;;1.08;0.30;;;10.90;99.90;;;;;;5017487;28;20112;-71
2024/02/23 02:11:52;;;;;;;4.70;0.57;;;10.80;99.90;;;;;;5016480;28;20108;-71
2024/02/23 02:14:18;;;;;;;2.30;0.20;;;10.70;99.90;;;;;;5018396;28;20033;-71
2024/02/23 02:16:44;;;;;;;0.13;0.10;;;10.60;99.90;;;;;;5018169;28;20108;-71
2024/02/23 02:19:14;;;;;;;5.50;0.60;;;10.50;99.90;;;;;;5020948;28;20030;-71
2024/02/23 02:21:40;;;;;;;0.30;0.20;;;10.50;99.90;;;;;;5013928;28;20584;-71
2024/02/23 02:24:06;;;;;;;1.25;0.08;;;10.40;99.90;;;;;;5017504;28;20138;-72
2024/02/23 02:26:32;;;;;;;0.25;0.10;;;10.40;99.90;;;;;;5017465;28;20608;-72
2024/02/23 02:28:59;;;;;;;0.80;0.22;;;10.30;99.90;;;;;;5018563;28;20036;-71
2024/02/23 02:31:24;;;;;;;0.30;0.20;;;10.20;99.90;;;;;;5019210;28;20041;-72
2024/02/23 02:33:50;;;;;;;0.40;0.10;;;10.20;99.90;;;;;;5016303;28;20030;-72
2024/02/23 02:36:16;;;;;;;2.13;0.20;;;10.20;99.90;;;;;;5017376;28;20524;-72
2024/02/23 02:38:42;;;;;;;3.38;0.57;;;10.20;99.90;;;;;;5016815;28;20041;-71
2024/02/23 02:41:09;;;;;;;1.75;0.17;;;10.10;99.90;;;;;;5018916;28;20040;-71
2024/02/23 02:43:34;;;;;;;1.55;0.30;;;10.00;99.90;;;;;;5017688;28;20125;-71
2024/02/23 02:46:00;;;;;;;0.75;0.20;;;10.00;99.90;;;;;;5016471;28;20113;-71
2024/02/23 02:48:26;;;;;;;1.27;0.20;;;10.00;99.90;;;;;;5017649;28;20080;-71
2024/02/23 02:50:52;;;;;;;0.47;0.10;;;10.00;99.90;;;;;;5018406;28;20026;-71
2024/02/23 02:53:19;;;;;;;1.65;0.30;;;9.90;99.90;;;;;;5019756;28;20033;-71
2024/02/23 02:55:45;;;;;;;2.85;0.32;;;9.90;99.90;;;;;;5015958;28;20038;-71
2024/02/23 02:58:14;;;;;;;1.88;0.20;;;9.90;99.90;;;;;;5014803;28;20102;-71
2024/02/23 03:00:40;;;;;;;0.32;0.20;;;10.00;99.90;;;;;;5013443;28;20039;-71
2024/02/23 03:03:06;;;;;;;1.10;0.32;;;9.90;99.90;;;;;;5018441;28;20037;-72
2024/02/23 03:05:32;;;;;;;0.73;0.15;;;9.90;99.90;;;;;;5018938;28;20084;-71
2024/02/23 03:07:58;;;;;;;2.20;0.20;;;9.90;99.90;;;;;;5015652;28;20053;-73
2024/02/23 03:10:23;;;;;;;1.40;0.20;;;9.80;99.90;;;;;;5017217;28;20014;-73
2024/02/23 03:12:49;;;;;;;1.63;0.30;;;9.80;99.90;;;;;;5015689;28;20113;-74
2024/02/23 03:15:16;;;;;;;1.02;0.10;;;9.80;99.90;;;;;;5018630;28;20044;-73
2024/02/23 03:17:42;;;;;;;0.65;0.20;;;9.80;99.90;;;;;;5016588;28;20033;-73
2024/02/23 03:20:08;;;;;;;0.55;0.05;;;9.80;99.90;;;;;;5017215;28;20037;-74
2024/02/23 03:22:38;;;;;;;1.80;0.30;;;9.70;99.90;;;;;;5013364;28;20045;-73
2024/02/23 03:25:08;;;;;;;0.73;0.10;;;9.70;99.90;;;;;;5017532;28;20120;-73
2024/02/23 03:27:37;;;;;;;0.13;0.10;;;9.80;99.90;;;;;;5017839;28;20543;-73
2024/02/23 03:30:05;;;;;;;1.38;0.20;;;9.70;99.90;;;;;;5017360;28;20514;-73
2024/02/23 03:32:36;;;;;;;1.88;0.30;;;9.70;99.90;;;;;;5015522;28;20111;-71
2024/02/23 03:35:03;;;;;;;1.17;0.20;;;9.70;99.90;;;;;;5017510;28;20501;-71
2024/02/23 03:37:29;;;;;;;0.30;0.10;;;9.70;99.90;;;;;;5019029;28;20045;-71
2024/02/23 03:39:55;;;;;;;0.70;0.30;;;9.70;99.90;;;;;;5019064;28;20084;-71
2024/02/23 03:42:21;;;;;;;0.30;0.28;;;9.70;99.90;;;;;;5017267;28;20121;-71
2024/02/23 03:44:46;;;;;;;0.57;0.20;;;9.80;99.90;;;;;;5015507;28;20516;-71
2024/02/23 03:47:13;;;;;;;3.67;0.65;;;9.80;99.90;;;;;;5018132;28;20378;-71
2024/02/23 03:49:38;;;;;;;3.65;0.30;;;9.80;99.90;;;;;;5018306;28;20033;-71
2024/02/23 03:52:05;;;;;;;0.98;0.13;;;9.60;99.90;;;;;;5018691;28;20516;-72
2024/02/23 03:54:33;;;;;;;1.00;0.32;;;9.60;99.90;;;;;;5016444;28;20034;-72
2024/02/23 03:56:59;;;;;;;0.40;0.15;;;9.60;99.90;;;;;;5015652;28;20026;-72
2024/02/23 03:59:25;;;;;;;1.83;0.32;;;9.50;99.90;;;;;;5017858;28;20733;-72
2024/02/23 04:01:51;;;;;;;2.63;0.28;;;9.50;99.90;;;;;;5013580;28;20065;-71
2024/02/23 04:04:17;;;;;;;0.57;0.20;;;9.50;99.90;;;;;;5016895;28;20405;-71
2024/02/23 04:06:43;;;;;;;0.32;0.20;;;9.50;99.90;;;;;;5015257;28;20661;-71
2024/02/23 04:09:09;;;;;;;0.68;0.10;;;9.50;99.90;;;;;;5017606;28;20025;-73
2024/02/23 04:11:35;;;;;;;0.82;0.20;;;9.40;99.90;;;;;;5017054;28;20053;-74
2024/02/23 04:14:01;;;;;;;2.05;0.20;;;9.50;99.90;;;;;;5020273;28;20092;-73
2024/02/23 04:16:27;;;;;;;0.13;0.03;;;9.40;99.90;;;;;;5017114;28;20044;-73
2024/02/23 04:18:54;;;;;;;0.60;0.20;;;9.30;99.90;;;;;;5015960;28;20030;-73
2024/02/23 04:21:20;;;;;;;4.85;0.30;;;9.40;99.90;;;;;;5017553;28;20041;-74
2024/02/23 04:23:46;;;;;;;0.20;0.15;;;9.30;99.90;;;;;;5017645;28;20049;-74
2024/02/23 04:26:13;;;;;;;0.73;0.20;;;9.20;99.90;;;;;;5020264;28;20037;-73
2024/02/23 04:28:40;;;;;;;1.55;0.15;;;9.20;99.90;;;;;;5013179;28;20457;-73
2024/02/23 04:31:05;;;;;;;0.63;0.17;;;9.20;99.90;;;;;;5016478;28;20464;-73
2024/02/23 04:33:32;;;;;;;0.00;0.00;;;9.20;99.90;;;;;;5019865;28;20038;-73
2024/02/23 04:35:58;;;;;;;0.10;0.10;;;9.30;99.90;;;;;;5018322;28;20081;-74
2024/02/23 04:38:24;;;;;;;0.05;0.00;;;9.50;99.90;;;;;;5017071;28;20122;-74
2024/02/23 04:40:50;;;;;;;1.02;0.13;;;9.50;99.90;;;;;;5014521;28;20037;-73
2024/02/23 04:43:16;;;;;;;0.73;0.32;;;9.60;99.90;;;;;;5019566;28;20072;-74
2024/02/23 04:45:42;;;;;;;3.95;0.40;;;9.40;99.90;;;;;;5016668;28;20120;-71
2024/02/23 04:48:08;;;;;;;0.60;0.20;;;9.40;99.90;;;;;;5016781;28;20386;-71
2024/02/23 04:50:34;;;;;;;0.60;0.25;;;9.40;99.90;;;;;;5016540;28;20687;-72
2024/02/23 04:52:59;;;;;;;0.40;0.10;;;9.40;99.90;;;;;;5015579;28;20025;-71
2024/02/23 04:55:25;;;;;;;0.70;0.20;;;9.40;99.90;;;;;;5016743;28;20037;-71
2024/02/23 04:57:51;;;;;;;1.30;0.17;;;9.40;99.90;;;;;;5017505;28;20034;-72
2024/02/23 05:00:17;;;;;;;0.93;0.17;;;9.30;99.90;;;;;;5019672;28;20087;-71
2024/02/23 05:02:43;;;;;;;0.45;0.00;;;9.30;99.90;;;;;;5014561;28;20026;-71
2024/02/23 05:05:09;;;;;;;0.30;0.25;;;9.30;99.90;;;;;;5016875;28;20025;-71
2024/02/23 05:07:35;;;;;;;0.52;0.40;;;9.20;99.90;;;;;;5017614;28;20022;-71
2024/02/23 05:10:01;;;;;;;1.13;0.28;;;9.30;99.90;;;;;;5024280;28;20493;-71
2024/02/23 05:12:26;;;;;;;0.57;0.43;;;9.20;99.90;;;;;;5024807;28;20562;-72
2024/02/23 05:14:52;;;;;;;0.25;0.10;;;9.30;99.90;;;;;;5021466;28;20528;-72
2024/02/23 05:17:18;;;;;;;0.57;0.20;;;9.10;99.90;;;;;;5023057;28;20038;-73
2024/02/23 05:19:46;;;;;;;0.30;0.20;;;9.00;99.90;;;;;;5022748;28;20508;-73
2024/02/23 05:22:12;;;;;;;0.80;0.30;;;8.90;99.90;;;;;;5023895;28;20041;-73
2024/02/23 05:24:38;;;;;;;0.35;0.15;;;8.90;99.90;;;;;;5018063;28;20052;-73
2024/02/23 05:27:04;;;;;;;1.25;0.15;;;8.90;99.90;;;;;;5019683;28;20103;-73
2024/02/23 05:29:30;;;;;;;0.10;0.10;;;8.70;99.90;;;;;;5021502;28;20405;-74
2024/02/23 05:31:56;;;;;;;0.20;0.20;;;8.60;99.90;;;;;;5016538;28;20037;-73
2024/02/23 05:34:22;;;;;;;0.57;0.40;;;8.70;99.90;;;;;;5014241;28;20099;-74
2024/02/23 05:36:47;;;;;;;0.57;0.57;;;8.70;99.90;;;;;;5019417;28;20463;-73
2024/02/23 05:39:17;;;;;;;1.63;0.55;;;8.70;99.90;;;;;;5022454;28;20037;-73
2024/02/23 05:41:43;;;;;;;0.45;0.17;;;8.70;99.90;;;;;;5018277;28;20035;-72
2024/02/23 05:44:10;;;;;;;0.10;0.10;;;8.50;99.90;;;;;;5023790;28;20037;-73
2024/02/23 05:46:36;;;;;;;3.25;0.15;;;8.30;99.90;;;;;;5019895;28;20026;-73
2024/02/23 05:49:06;;;;;;;0.15;0.15;;;8.30;99.90;;;;;;5021921;28;20126;-73
2024/02/23 05:51:32;;;;;;;3.55;0.40;;;8.30;99.90;;;;;;5020121;28;20026;-73
2024/02/23 05:53:58;;;;;;;1.85;0.52;;;8.20;99.90;;;;;;5018644;28;20065;-73
2024/02/23 05:56:24;;;;;;;2.00;1.42;;;8.30;99.90;;;;;;5024018;28;20041;-74
2024/02/23 05:58:52;;;;;;;5.00;1.40;;;8.30;99.90;;;;;;5022134;28;20036;-71
2024/02/23 06:01:18;;;;;;;3.45;3.03;;;8.40;99.90;;;;;;4991512;28;20167;-70
2024/02/23 06:03:45;;;;;;;1.70;1.60;;;8.40;99.90;;;;;;5021417;28;20033;-71
2024/02/23 06:06:11;;;;;;;1.92;1.20;;;8.30;99.90;;;;;;5021153;28;20029;-71
2024/02/23 06:08:37;;;;;;;2.50;1.70;;;8.40;99.90;;;;;;5018630;28;20079;-71
2024/02/23 06:11:04;;;;;;;2.47;1.30;;;8.40;99.90;;;;;;5018138;28;20392;-71
2024/02/23 06:13:30;;;;;;;2.83;1.85;;;8.40;99.90;;;;;;5019084;28;20441;-71
2024/02/23 06:15:56;;;;;;;1.23;1.13;;;8.40;99.90;;;;;;5018038;28;20038;-71
2024/02/23 06:18:22;;;;;;;3.65;2.10;;;8.40;99.90;;;;;;5017354;28;20044;-71
2024/02/23 06:20:49;;;;;;;2.05;1.52;;;8.40;99.90;;;;;;5020906;28;20038;-72
2024/02/23 06:23:16;;;;;;;1.83;0.77;;;8.50;99.90;;;;;;5021346;28;20041;-72
2024/02/23 06:25:42;;;;;;;1.85;1.20;;;8.50;99.90;;;;;;5019336;28;20030;-72
2024/02/23 06:28:08;;;;;;;3.72;2.10;;;8.50;99.90;;;;;;5019261;28;20494;-72
2024/02/23 06:30:33;;;;;;;4.55;2.17;;;8.50;99.90;;;;;;4999345;28;20069;-72
2024/02/23 06:32:59;;;;;;;3.00;1.60;;;8.50;99.90;;;;;;5015229;28;20202;-72
2024/02/23 06:35:25;;;;;;;6.57;2.45;;;8.60;99.90;;;;;;5020852;28;20128;-72
2024/02/23 06:37:51;;;;;;;5.47;2.13;;;8.70;99.90;;;;;;5016825;28;20080;-72
2024/02/23 06:40:18;;;;;;;6.20;2.40;;;8.70;99.90;;;;;;5015783;28;20064;-72
2024/02/23 06:42:44;;;;;;;4.82;2.10;;;8.80;99.90;;;;;;5015354;28;20037;-72
2024/02/23 06:45:10;;;;;;;3.22;1.55;;;8.80;99.90;;;;;;5012727;28;20037;-71
2024/02/23 06:47:35;;;;;;;3.58;1.63;;;8.80;99.90;;;;;;5014089;28;20610;-71
2024/02/23 06:50:03;;;;;;;5.13;2.40;;;8.90;99.90;;;;;;5016879;28;20041;-71
2024/02/23 06:52:29;;;;;;;10.07;4.47;;;9.00;99.90;;;;;;5010899;28;20037;-71
2024/02/23 06:54:55;;;;;;;8.95;5.03;;;9.00;99.90;;;;;;5019894;28;20032;-72
2024/02/23 06:57:22;;;;;;;7.50;3.00;;;9.10;99.90;;;;;;5014603;28;20044;-71
2024/02/23 06:59:48;;;;;;;7.20;3.90;;;9.10;99.90;;;;;;5012190;28;20036;-74
2024/02/23 07:02:14;;;;;;;4.43;3.22;;;9.20;99.90;;;;;;5015509;28;20033;-71
2024/02/23 07:04:39;;;;;;;5.07;3.30;;;9.10;99.90;;;;;;5016910;28;20014;-71
2024/02/23 07:07:08;;;;;;;4.38;2.65;;;9.00;99.90;;;;;;5014463;28;20469;-71
2024/02/23 07:09:34;;;;;;;11.35;5.22;;;8.90;99.90;;;;;;5013330;28;20029;-71
2024/02/23 07:12:01;;;;;;;5.05;2.13;;;8.90;99.90;;;;;;5018398;28;20034;-71
2024/02/23 07:14:26;;;;;;;3.90;1.92;;;9.00;99.90;;;;;;5010361;28;20542;-71
2024/02/23 07:16:52;;;;;;;6.40;3.28;;;9.10;99.90;;;;;;5016964;28;20029;-71
2024/02/23 07:19:19;;;;;;;5.85;2.60;;;9.10;99.90;;;;;;5012997;28;20099;-71
2024/02/23 07:21:46;;;;;;;7.80;2.85;;;9.00;99.90;;;;;;5012092;28;20050;-71
2024/02/23 07:24:13;;;;;;;12.13;4.78;;;9.00;99.90;;;;;;5013467;28;20099;-71
2024/02/23 07:26:38;;;;;;;2.47;1.20;;;9.00;99.90;;;;;;5015549;28;20064;-73
2024/02/23 07:29:05;;;;;;;1.20;0.88;;;8.90;99.90;;;;;;5013326;28;20121;-72
2024/02/23 07:31:32;;;;;;;3.78;1.85;;;8.60;99.90;;;;;;5013575;28;20034;-72
2024/02/23 07:33:57;;;;;;;3.88;2.15;;;8.40;99.90;;;;;;5016168;28;20036;-72
2024/02/23 07:36:23;;;;;;;2.20;0.95;;;8.50;99.90;;;;;;5011589;28;20021;-73
2024/02/23 07:38:49;;;;;;;0.50;0.40;;;8.50;99.90;;;;;;5015549;28;20105;-72
2024/02/23 07:41:17;;;;;;;0.20;0.20;;;8.50;99.90;;;;;;5017325;28;20136;-72
2024/02/23 07:43:44;;;;;;;1.98;0.98;;;8.60;99.90;;;;;;5014191;28;20029;-73
2024/02/23 07:46:10;;;;;;;0.52;0.30;;;8.60;99.90;;;;;;5017076;28;20029;-71
2024/02/23 07:48:36;;;;;;;0.52;0.25;;;8.60;99.90;;;;;;5011434;28;20033;-71
2024/02/23 07:51:04;;;;;;;2.40;0.20;;;8.70;99.90;;;;;;5015453;28;20037;-71
2024/02/23 07:53:31;;;;;;;0.30;0.30;;;8.90;99.90;;;;;;5017242;28;20037;-73
2024/02/23 07:55:59;;;;;;;0.10;0.10;;;9.10;99.90;;;;;;5014633;28;20445;-73
2024/02/23 07:58:28;;;;;;;0.98;0.30;;;9.20;99.90;;;;;;5014801;28;20034;-73
2024/02/23 08:00:54;;;;;;;0.20;0.20;;;9.50;99.90;;;;;;5009899;28;20038;-72
2024/02/23 08:03:20;;;;;;;0.10;0.10;;;9.80;99.90;;;;;;5016485;28;20044;-73
2024/02/23 08:05:46;;;;;;;0.52;0.20;;;10.00;99.90;;;;;;5012340;28;20022;-73
2024/02/23 08:08:12;;;;;;;0.15;0.10;;;10.00;99.90;;;;;;5011608;28;20116;-73
2024/02/23 08:10:38;;;;;;;0.60;0.20;;;9.90;99.90;;;;;;5014327;28;20458;-73
2024/02/23 08:13:04;;;;;;;0.30;0.20;;;9.70;99.90;;;;;;5011899;28;20087;-71
2024/02/23 08:15:30;;;;;;;1.15;0.22;;;9.70;99.90;;;;;;5014754;28;20030;-72
2024/02/23 08:17:55;;;;;;;0.77;0.40;;;9.50;99.90;;;;;;5013282;28;20030;-73
2024/02/23 08:20:21;;;;;;;1.75;0.55;;;9.40;99.90;;;;;;5013705;28;20042;-73
2024/02/23 08:22:47;;;;;;;0.82;0.55;;;9.30;99.90;;;;;;5012648;28;20034;-73
2024/02/23 08:25:13;;;;;;;1.33;0.70;;;9.40;99.90;;;;;;5014932;28;20026;-73
2024/02/23 08:27:41;;;;;;;2.13;1.23;;;9.50;99.90;;;;;;5011338;28;20025;-72
2024/02/23 08:30:07;;;;;;;0.88;0.43;;;9.50;99.90;;;;;;5017160;28;20041;-73
2024/02/23 08:32:33;;;;;;;1.02;0.30;;;9.40;99.90;;;;;;5012231;28;20033;-73
2024/02/23 08:35:02;;;;;;;2.03;0.20;;;9.40;99.90;;;;;;5013948;28;20036;-70
2024/02/23 08:37:28;;;;;;;0.20;0.15;;;9.30;99.90;;;;;;5013679;28;20029;-70
2024/02/23 08:39:54;;;;;;;1.65;0.40;;;9.20;99.90;;;;;;5009871;28;20052;-70
2024/02/23 08:42:20;;;;;;;0.30;0.20;;;9.40;99.90;;;;;;5010752;28;20647;-70
2024/02/23 08:44:46;;;;;;;0.65;0.20;;;9.50;99.40;;;;;;5017940;28;20889;-70
2024/02/23 08:47:12;;;;;;;0.50;0.30;;;9.50;99.90;;;;;;5016729;28;20517;-72
2024/02/23 08:49:37;;;;;;;0.65;0.20;;;9.70;99.90;;;;;;5015856;28;20506;-72
2024/02/23 08:52:04;;;;;;;0.10;0.10;;;9.70;99.90;;;;;;5015905;28;20026;-70
2024/02/23 08:54:29;;;;;;;1.13;0.45;;;10.00;99.90;;;;;;5016093;28;20378;-70
2024/02/23 08:56:55;;;;;;;1.50;0.15;;;10.00;99.10;;;;;;5017119;28;20037;-70
2024/02/23 08:59:21;;;;;;;0.40;0.10;;;10.00;99.80;;;;;;5021471;28;20022;-70
2024/02/23 09:01:47;;;;;;;0.55;0.30;;;10.20;99.90;;;;;;5018955;28;20628;-70
2024/02/23 09:04:13;;;;;;;0.00;0.00;;;10.40;98.90;;;;;;5015945;28;20232;-70
2024/02/23 09:06:39;;;;;;;0.95;0.28;;;10.30;98.70;;;;;;5015692;28;20025;-70
2024/02/23 09:09:05;;;;;;;0.20;0.20;;;10.10;98.90;;;;;;5009353;28;20176;-70
2024/02/23 09:11:31;;;;;;;0.80;0.10;;;9.90;99.00;;;;;;5013447;28;20025;-71
2024/02/23 09:13:57;;;;;;;1.15;0.10;;;9.80;99.50;;;;;;5011471;28;20036;-71
2024/02/23 09:16:24;;;;;;;1.20;0.10;;;9.80;98.90;;;;;;5011795;28;20472;-71
2024/02/23 09:18:50;;;;;;;0.05;0.05;;;9.90;98.40;;;;;;5012991;28;20030;-73
2024/02/23 09:21:16;;;;;;;0.25;0.10;;;9.90;98.90;;;;;;5010158;28;20030;-72
2024/02/23 09:23:42;;;;;;;0.38;0.20;;;9.90;99.40;;;;;;5014768;28;20036;-72
2024/02/23 09:26:11;;;;;;;0.63;0.30;;;9.90;98.90;;;;;;5008792;28;20041;-72
2024/02/23 09:28:38;;;;;;;0.65;0.30;;;9.90;98.30;;;;;;5015131;28;20025;-72
2024/02/23 09:31:04;;;;;;;3.08;0.25;;;9.60;98.30;;;;;;5011102;28;20037;-73
2024/02/23 09:33:30;;;;;;;1.70;0.50;;;9.90;99.90;;;;;;5011292;28;20552;-71
2024/02/23 09:35:57;;;;;;;1.23;0.40;;;9.90;99.60;;;;;;5013111;28;20033;-71
2024/02/23 09:38:24;;;;;;;0.80;0.50;;;10.00;99.90;;;;;;5009698;28;20034;-73
2024/02/23 09:40:51;;;;;;;0.30;0.30;;;10.20;99.90;;;;;;5014957;28;20117;-71
2024/02/23 09:43:19;;;;;;;1.55;0.20;;;10.50;99.70;;;;;;5008807;28;20837;-71
2024/02/23 09:45:46;;;;;;;0.70;0.20;;;10.80;98.50;;;;;;5012517;28;20038;-70
2024/02/23 09:48:14;;;;;;;2.10;0.20;;;11.00;97.70;;;;;;5011167;28;20030;-70
2024/02/23 09:50:42;;;;;;;0.57;0.20;;;10.60;98.50;;;;;;5008583;28;20033;-75
2024/02/23 09:53:11;;;;;;;0.60;0.17;;;10.60;98.10;;;;;;5013876;28;20064;-72
2024/02/23 09:55:36;;;;;;;1.30;0.22;;;10.50;96.90;;;;;;5012129;28;20064;-72
2024/02/23 09:58:04;;;;;;;0.55;0.20;;;10.50;97.20;;;;;;5020728;28;20145;-72
2024/02/23 10:00:30;;;;;;;0.75;0.35;;;10.50;97.50;;;;;;5013038;28;20533;-73
2024/02/23 10:02:57;;;;;;;0.28;0.28;;;10.50;97.60;;;;;;5013506;28;20173;-71
2024/02/23 10:05:33;;;;;;;0.65;0.20;;;10.40;98.70;;;;;;5016643;28;20041;-71
2024/02/23 10:07:59;;;;;;;0.15;0.15;;;10.50;97.90;;;;;;5016271;28;20037;-71
2024/02/23 10:10:31;;;;;;;1.67;0.20;;;10.50;97.40;;;;;;5016712;28;20038;-72
2024/02/23 10:12:58;;;;;;;0.20;0.20;;;10.70;97.50;;;;;;5014623;28;20033;-72
2024/02/23 10:15:24;;;;;;;1.25;0.47;;;10.60;97.50;;;;;;5018323;28;20065;-72
2024/02/23 10:17:50;;;;;;;1.45;0.60;;;10.30;97.60;;;;;;5014133;28;20053;-73
2024/02/23 10:20:17;;;;;;;0.20;0.17;;;10.30;97.60;;;;;;5016494;28;20034;-72
2024/02/23 10:22:44;;;;;;;1.13;0.47;;;10.40;97.80;;;;;;5018563;28;20770;-73
2024/02/23 10:25:10;;;;;;;0.63;0.40;;;10.60;97.30;;;;;;5018289;28;20858;-72
2024/02/23 10:27:36;;;;;;;0.20;0.20;;;10.50;97.60;;;;;;5011186;28;20029;-72
2024/02/23 10:30:02;;;;;;;2.17;0.68;;;10.40;97.10;;;;;;5014067;28;20018;-72
2024/02/23 10:32:30;;;;;;;0.35;0.28;;;10.40;96.70;;;;;;5015393;28;20405;-72
2024/02/23 10:35:00;;;;;;;3.38;1.10;;;10.50;96.50;;;;;;5013616;28;20030;-73
2024/02/23 10:37:28;;;;;;;1.42;0.30;;;10.70;96.40;;;;;;5014671;28;20124;-73
2024/02/23 10:40:00;;;;;;;0.43;0.28;;;11.00;95.30;;;;;;5025300;28;20573;-73
2024/02/23 10:42:30;;;;;;;0.75;0.20;;;11.10;95.80;;;;;;5009501;28;20037;-72
2024/02/23 10:45:01;;;;;;;1.48;0.45;;;11.10;94.80;;;;;;5011215;28;20517;-72
2024/02/23 10:47:28;;;;;;;0.75;0.40;;;10.90;95.40;;;;;;5011963;28;20038;-72
2024/02/23 10:49:55;;;;;;;1.40;0.25;;;10.90;94.60;;;;;;5013055;28;20117;-73
2024/02/23 10:52:23;;;;;;;0.10;0.10;;;11.10;95.80;;;;;;5010692;28;20030;-70
2024/02/23 10:54:51;;;;;;;0.20;0.20;;;11.20;94.30;;;;;;5015496;28;20048;-71
2024/02/23 10:57:18;;;;;;;0.88;0.40;;;10.80;94.00;;;;;;5009414;28;20140;-72
2024/02/23 10:59:47;;;;;;;0.65;0.47;;;10.50;94.90;;;;;;5013877;28;20783;-70
2024/02/23 11:02:17;;;;;;;3.15;1.08;;;10.50;95.70;;;;;;5004759;28;20018;-69
2024/02/23 11:04:50;;;;;;;0.30;0.25;;;10.80;94.80;;;;;;5010003;28;20137;-69
2024/02/23 11:07:19;;;;;;;2.50;0.40;;;10.90;94.90;;;;;;5011829;28;20044;-69
2024/02/23 11:09:52;;;;;;;0.85;0.30;;;10.80;94.00;;;;;;5012821;28;20120;-69
2024/02/23 11:12:29;;;;;;;1.83;1.20;;;10.80;93.10;;;;;;5010960;28;20021;-69
2024/02/23 11:15:00;;;;;;;0.98;0.43;;;10.80;94.50;;;;;;5011529;28;20112;-71
2024/02/23 11:17:36;;;;;;;1.92;0.30;;;11.00;94.40;;;;;;5016203;28;20033;-71
2024/02/23 11:20:06;;;;;;;0.57;0.20;;;10.80;92.80;;;;;;5009326;28;20041;-71
2024/02/23 11:22:37;;;;;;;2.60;0.30;;;10.70;92.90;;;;;;5015184;28;20053;-71
2024/02/23 11:25:11;;;;;;;0.20;0.20;;;10.90;92.50;;;;;;5018838;28;20037;-72
2024/02/23 11:27:38;;;;;;;1.42;0.22;;;10.70;91.90;;;;;;5014488;28;20030;-72
2024/02/23 11:30:06;;;;;;;2.17;0.63;;;10.90;92.50;;;;;;5014455;28;20030;-71
2024/02/23 11:32:41;;;;;;;3.60;0.32;;;10.80;92.60;;;;;;5014507;28;20072;-71
2024/02/23 11:35:08;;;;;;;0.88;0.45;;;10.80;92.40;;;;;;5015827;28;20542;-71
2024/02/23 11:38:02;;;;;;;1.27;0.90;;;10.70;92.70;;;;;;5010443;28;20236;-70
2024/02/23 11:40:31;;;;;;;1.67;1.02;;;10.50;92.30;;;;;;5015484;28;20689;-70
2024/02/23 11:43:00;;;;;;;1.45;0.60;;;10.50;93.10;;;;;;5014016;28;20037;-70
2024/02/23 11:45:28;;;;;;;1.65;0.70;;;10.50;92.70;;;;;;5014500;28;20120;-70
2024/02/23 11:47:56;;;;;;;3.75;1.67;;;10.40;92.40;;;;;;5008899;28;20045;-70
2024/02/23 11:50:21;;;;;;;0.65;0.47;;;10.30;93.00;;;;;;5010476;28;20030;-69
2024/02/23 11:52:48;;;;;;;0.60;0.10;;;10.20;93.00;;;;;;5015517;28;20075;-70
2024/02/23 11:55:22;;;;;;;0.50;0.30;;;10.10;94.50;;;;;;5014210;28;20038;-70
2024/02/23 11:57:48;;;;;;;1.23;0.20;;;10.20;94.10;;;;;;5012609;28;20080;-72
2024/02/23 12:00:15;;;;;;;0.50;0.30;;;10.20;93.30;;;;;;5015497;28;20030;-72
2024/02/23 12:02:41;;;;;;;0.43;0.30;;;10.20;93.70;;;;;;5018393;28;20033;-72
2024/02/23 12:05:07;;;;;;;0.98;0.15;;;10.20;93.00;;;;;;5030036;28;20665;-71
2024/02/23 12:07:34;;;;;;;1.67;0.20;;;10.20;93.90;;;;;;5012187;28;20067;-71
2024/02/23 12:10:00;;;;;;;1.20;0.30;;;10.30;93.00;;;;;;5014174;28;20492;-69
2024/02/23 12:12:26;;;;;;;1.98;0.32;;;10.30;93.40;;;;;;5011147;28;20029;-69
2024/02/23 12:14:53;;;;;;;0.45;0.30;;;9.90;92.90;;;;;;5012169;28;20144;-69
2024/02/23 12:17:19;;;;;;;0.57;0.20;;;9.90;94.00;;;;;;5011123;28;20033;-70
2024/02/23 12:19:45;;;;;;;1.05;0.40;;;10.00;93.60;;;;;;5016809;28;20094;-70
2024/02/23 12:22:12;;;;;;;2.08;0.28;;;9.90;93.40;;;;;;5011282;28;20481;-70
2024/02/23 12:24:38;;;;;;;0.57;0.17;;;10.00;93.90;;;;;;5012418;28;20056;-70
2024/02/23 12:27:05;;;;;;;1.75;0.40;;;10.10;93.50;;;;;;5014197;28;20068;-69
2024/02/23 12:29:31;;;;;;;0.75;0.30;;;10.30;93.90;;;;;;5017978;28;20032;-69
2024/02/23 12:32:04;;;;;;;3.60;0.40;;;10.20;93.10;;;;;;5014892;28;20026;-69
2024/02/23 12:34:30;;;;;;;0.35;0.25;;;10.20;94.30;;;;;;5015476;28;20037;-70
2024/02/23 12:36:56;;;;;;;1.58;0.40;;;10.00;92.90;;;;;;5013127;28;20753;-69
2024/02/23 12:39:22;;;;;;;1.98;0.30;;;10.00;94.40;;;;;;5002612;28;20064;-74
2024/02/23 12:41:48;;;;;;;0.80;0.40;;;10.00;94.20;;;;;;5011120;28;20044;-76
2024/02/23 12:44:14;;;;;;;2.28;0.30;;;10.00;93.70;;;;;;5012259;28;20029;-75
2024/02/23 12:46:40;;;;;;;1.52;0.30;;;10.00;94.50;;;;;;5012375;28;20837;-75
2024/02/23 12:49:06;;;;;;;1.77;0.30;;;10.00;93.70;;;;;;5013490;28;20029;-75